sensor_id;sensor_type;location;lat;lon;timestamp;temperature;humidity
39033;DHT22;24794;51.982;5.878;2023-01-19T00:00:37;2.80;99.90
39033;DHT22;24794;51.982;5.878;2023-01-19T00:01:37;2.80;99.90
39033;DHT22;24794;51.982;5.878;2023-01-19T00:02:38;2.80;99.90
39033;DHT22;24794;51.982;5.878;2023-01-19T00:03:38;2.80;99.90
39033;DHT22;24794;51.982;5.878;2023-01-19T00:04:39;2.80;99.90
39033;DHT22;24794;51.982;5.878;2023-01-19T00:05:40;2.80;99.90
39033;DHT22;24794;51.982;5.878;2023-01-19T00:06:41;2.90;99.90
39033;DHT22;24794;51.982;5.878;2023-01-19T00:07:42;2.90;99.90
39033;DHT22;24794;51.982;5.878;2023-01-19T00:08:42;2.90;99.90
39033;DHT22;24794;51.982;5.878;2023-01-19T00:09:48;2.90;99.90
39033;DHT22;24794;51.982;5.878;2023-01-19T00:10:49;2.90;99.90
39033;DHT22;24794;51.982;5.878;2023-01-19T00:11:53;2.90;99.90
39033;DHT22;24794;51.982;5.878;2023-01-19T00:12:53;2.90;99.90
39033;DHT22;24794;51.982;5.878;2023-01-19T00:13:54;2.90;99.90
39033;DHT22;24794;51.982;5.878;2023-01-19T00:14:54;3.00;99.90
39033;DHT22;24794;51.982;5.878;2023-01-19T00:15:55;3.00;99.90
39033;DHT22;24794;51.982;5.878;2023-01-19T00:16:56;2.90;99.90
39033;DHT22;24794;51.982;5.878;2023-01-19T00:17:56;3.00;99.90
39033;DHT22;24794;51.982;5.878;2023-01-19T00:18:57;3.00;99.90
39033;DHT22;24794;51.982;5.878;2023-01-19T00:19:58;2.90;99.90
39033;DHT22;24794;51.982;5.878;2023-01-19T00:20:58;2.90;99.90
39033;DHT22;24794;51.982;5.878;2023-01-19T00:21:59;3.00;99.90
39033;DHT22;24794;51.982;5.878;2023-01-19T00:22:59;2.90;99.90
39033;DHT22;24794;51.982;5.878;2023-01-19T00:24:00;3.00;99.90
39033;DHT22;24794;51.982;5.878;2023-01-19T00:25:01;3.00;99.90
39033;DHT22;24794;51.982;5.878;2023-01-19T00:26:01;3.00;99.90
39033;DHT22;24794;51.982;5.878;2023-01-19T00:27:02;3.00;99.90
39033;DHT22;24794;51.982;5.878;2023-01-19T00:28:09;3.00;99.90
39033;DHT22;24794;51.982;5.878;2023-01-19T00:29:10;3.00;99.90
39033;DHT22;24794;51.982;5.878;2023-01-19T00:30:11;3.00;99.90
39033;DHT22;24794;51.982;5.878;2023-01-19T00:31:12;3.00;99.90
39033;DHT22;24794;51.982;5.878;2023-01-19T00:32:13;3.00;99.90
39033;DHT22;24794;51.982;5.878;2023-01-19T00:33:13;3.00;99.90
39033;DHT22;24794;51.982;5.878;2023-01-19T00:34:14;3.00;99.90
39033;DHT22;24794;51.982;5.878;2023-01-19T00:35:15;3.00;99.90
39033;DHT22;24794;51.982;5.878;2023-01-19T00:36:16;3.00;99.90
39033;DHT22;24794;51.982;5.878;2023-01-19T00:37:16;3.00;99.90
39033;DHT22;24794;51.982;5.878;2023-01-19T00:38:17;3.00;99.90
39033;DHT22;24794;51.982;5.878;2023-01-19T00:39:19;3.00;99.90
39033;DHT22;24794;51.982;5.878;2023-01-19T00:40:19;3.00;99.90
39033;DHT22;24794;51.982;5.878;2023-01-19T00:41:20;3.00;99.90
39033;DHT22;24794;51.982;5.878;2023-01-19T00:42:43;3.00;99.90
39033;DHT22;24794;51.982;5.878;2023-01-19T00:43:44;3.00;99.90
39033;DHT22;24794;51.982;5.878;2023-01-19T00:44:45;3.00;99.90
39033;DHT22;24794;51.982;5.878;2023-01-19T00:45:45;3.00;99.90
39033;DHT22;24794;51.982;5.878;2023-01-19T00:46:46;3.00;99.90
39033;DHT22;24794;51.982;5.878;2023-01-19T00:47:48;3.00;99.90
39033;DHT22;24794;51.982;5.878;2023-01-19T00:48:49;3.00;99.90
39033;DHT22;24794;51.982;5.878;2023-01-19T00:49:50;3.00;99.90
39033;DHT22;24794;51.982;5.878;2023-01-19T00:50:50;3.00;99.90
39033;DHT22;24794;51.982;5.878;2023-01-19T00:51:51;3.10;99.90
39033;DHT22;24794;51.982;5.878;2023-01-19T00:52:53;3.00;99.90
39033;DHT22;24794;51.982;5.878;2023-01-19T00:53:54;3.00;99.90
39033;DHT22;24794;51.982;5.878;2023-01-19T00:54:54;3.00;99.90
39033;DHT22;24794;51.982;5.878;2023-01-19T00:55:55;3.00;99.90
39033;DHT22;24794;51.982;5.878;2023-01-19T00:56:55;3.00;99.90
39033;DHT22;24794;51.982;5.878;2023-01-19T00:57:56;3.00;99.90
39033;DHT22;24794;51.982;5.878;2023-01-19T00:58:57;3.00;99.90
39033;DHT22;24794;51.982;5.878;2023-01-19T00:59:57;3.00;99.90
39033;DHT22;24794;51.982;5.878;2023-01-19T01:00:58;3.00;99.90
39033;DHT22;24794;51.982;5.878;2023-01-19T01:02:02;3.00;99.90
39033;DHT22;24794;51.982;5.878;2023-01-19T01:03:03;3.00;99.90
39033;DHT22;24794;51.982;5.878;2023-01-19T01:04:04;3.00;99.90
39033;DHT22;24794;51.982;5.878;2023-01-19T01:05:05;3.00;99.90
39033;DHT22;24794;51.982;5.878;2023-01-19T01:06:06;3.00;99.90
39033;DHT22;24794;51.982;5.878;2023-01-19T01:07:07;3.00;99.90
39033;DHT22;24794;51.982;5.878;2023-01-19T01:08:08;3.00;99.90
39033;DHT22;24794;51.982;5.878;2023-01-19T01:09:09;3.00;99.90
39033;DHT22;24794;51.982;5.878;2023-01-19T01:10:18;3.00;99.90
39033;DHT22;24794;51.982;5.878;2023-01-19T01:11:19;3.00;99.90
39033;DHT22;24794;51.982;5.878;2023-01-19T01:12:20;3.00;99.90
39033;DHT22;24794;51.982;5.878;2023-01-19T01:13:20;3.00;99.90
39033;DHT22;24794;51.982;5.878;2023-01-19T01:14:21;3.00;99.90
39033;DHT22;24794;51.982;5.878;2023-01-19T01:15:23;3.00;99.90
39033;DHT22;24794;51.982;5.878;2023-01-19T01:16:25;3.00;99.90
39033;DHT22;24794;51.982;5.878;2023-01-19T01:17:26;3.00;99.90
39033;DHT22;24794;51.982;5.878;2023-01-19T01:18:26;3.00;99.90
39033;DHT22;24794;51.982;5.878;2023-01-19T01:19:27;3.00;99.90
39033;DHT22;24794;51.982;5.878;2023-01-19T01:20:28;3.00;99.90
39033;DHT22;24794;51.982;5.878;2023-01-19T01:21:30;3.00;99.90
39033;DHT22;24794;51.982;5.878;2023-01-19T01:22:31;2.90;99.90
39033;DHT22;24794;51.982;5.878;2023-01-19T01:23:32;2.90;99.90
39033;DHT22;24794;51.982;5.878;2023-01-19T01:24:34;3.00;99.90
39033;DHT22;24794;51.982;5.878;2023-01-19T01:25:34;3.00;99.90
39033;DHT22;24794;51.982;5.878;2023-01-19T01:26:37;2.90;99.90
39033;DHT22;24794;51.982;5.878;2023-01-19T01:27:37;3.00;99.90
39033;DHT22;24794;51.982;5.878;2023-01-19T01:28:38;2.90;99.90
39033;DHT22;24794;51.982;5.878;2023-01-19T01:29:39;2.90;99.90
39033;DHT22;24794;51.982;5.878;2023-01-19T01:30:40;3.00;99.90
39033;DHT22;24794;51.982;5.878;2023-01-19T01:31:42;2.90;99.90
39033;DHT22;24794;51.982;5.878;2023-01-19T01:32:43;2.90;99.90
39033;DHT22;24794;51.982;5.878;2023-01-19T01:33:43;2.90;99.90
39033;DHT22;24794;51.982;5.878;2023-01-19T01:34:44;2.90;99.90
39033;DHT22;24794;51.982;5.878;2023-01-19T01:35:45;2.90;99.90
39033;DHT22;24794;51.982;5.878;2023-01-19T01:36:45;2.90;99.90
39033;DHT22;24794;51.982;5.878;2023-01-19T01:37:46;2.90;99.90
39033;DHT22;24794;51.982;5.878;2023-01-19T01:38:46;2.90;99.90
39033;DHT22;24794;51.982;5.878;2023-01-19T01:39:47;3.00;99.90
39033;DHT22;24794;51.982;5.878;2023-01-19T01:40:48;2.90;99.90
39033;DHT22;24794;51.982;5.878;2023-01-19T01:41:48;3.00;99.90
39033;DHT22;24794;51.982;5.878;2023-01-19T01:42:49;3.00;99.90
39033;DHT22;24794;51.982;5.878;2023-01-19T01:43:52;3.00;99.90
39033;DHT22;24794;51.982;5.878;2023-01-19T01:45:00;3.00;99.90
39033;DHT22;24794;51.982;5.878;2023-01-19T01:46:01;3.00;99.90
39033;DHT22;24794;51.982;5.878;2023-01-19T01:47:02;3.10;99.90
39033;DHT22;24794;51.982;5.878;2023-01-19T01:49:14;3.00;99.90
39033;DHT22;24794;51.982;5.878;2023-01-19T01:50:25;3.00;99.90
39033;DHT22;24794;51.982;5.878;2023-01-19T01:52:28;3.00;99.90
39033;DHT22;24794;51.982;5.878;2023-01-19T01:53:31;2.90;99.90
39033;DHT22;24794;51.982;5.878;2023-01-19T01:54:33;2.90;99.90
39033;DHT22;24794;51.982;5.878;2023-01-19T01:55:46;2.90;99.90
39033;DHT22;24794;51.982;5.878;2023-01-19T01:56:51;2.80;99.90
39033;DHT22;24794;51.982;5.878;2023-01-19T01:57:55;2.80;99.90
39033;DHT22;24794;51.982;5.878;2023-01-19T01:58:58;2.80;99.90
39033;DHT22;24794;51.982;5.878;2023-01-19T02:00:00;2.80;99.90
39033;DHT22;24794;51.982;5.878;2023-01-19T02:01:02;2.80;99.90
39033;DHT22;24794;51.982;5.878;2023-01-19T02:02:23;2.80;99.90
39033;DHT22;24794;51.982;5.878;2023-01-19T02:04:03;2.70;99.90
39033;DHT22;24794;51.982;5.878;2023-01-19T02:05:09;2.60;99.90
39033;DHT22;24794;51.982;5.878;2023-01-19T02:06:11;2.60;99.90
39033;DHT22;24794;51.982;5.878;2023-01-19T02:07:16;2.50;99.90
39033;DHT22;24794;51.982;5.878;2023-01-19T02:08:47;2.50;99.90
39033;DHT22;24794;51.982;5.878;2023-01-19T02:10:08;2.50;99.90
39033;DHT22;24794;51.982;5.878;2023-01-19T02:11:29;2.50;99.90
39033;DHT22;24794;51.982;5.878;2023-01-19T02:12:48;2.40;99.90
39033;DHT22;24794;51.982;5.878;2023-01-19T02:14:08;2.40;99.90
39033;DHT22;24794;51.982;5.878;2023-01-19T02:15:17;2.40;99.90
39033;DHT22;24794;51.982;5.878;2023-01-19T02:16:19;2.40;99.90
39033;DHT22;24794;51.982;5.878;2023-01-19T02:17:20;2.40;99.90
39033;DHT22;24794;51.982;5.878;2023-01-19T02:18:22;2.30;99.90
39033;DHT22;24794;51.982;5.878;2023-01-19T02:19:29;2.30;99.90
39033;DHT22;24794;51.982;5.878;2023-01-19T02:20:34;2.30;99.90
39033;DHT22;24794;51.982;5.878;2023-01-19T02:22:50;2.20;99.90
39033;DHT22;24794;51.982;5.878;2023-01-19T02:23:56;2.20;99.90
39033;DHT22;24794;51.982;5.878;2023-01-19T02:24:57;2.10;99.90
39033;DHT22;24794;51.982;5.878;2023-01-19T02:25:59;2.10;99.90
39033;DHT22;24794;51.982;5.878;2023-01-19T02:27:00;2.00;99.90
39033;DHT22;24794;51.982;5.878;2023-01-19T02:28:01;2.00;99.90
39033;DHT22;24794;51.982;5.878;2023-01-19T02:29:05;2.00;99.90
39033;DHT22;24794;51.982;5.878;2023-01-19T02:30:07;1.90;99.90
39033;DHT22;24794;51.982;5.878;2023-01-19T02:31:09;1.80;99.90
39033;DHT22;24794;51.982;5.878;2023-01-19T02:32:11;1.80;99.90
39033;DHT22;24794;51.982;5.878;2023-01-19T02:33:12;1.70;99.90
39033;DHT22;24794;51.982;5.878;2023-01-19T02:34:18;1.70;99.90
39033;DHT22;24794;51.982;5.878;2023-01-19T02:35:20;1.60;99.90
39033;DHT22;24794;51.982;5.878;2023-01-19T02:36:47;1.60;99.90
39033;DHT22;24794;51.982;5.878;2023-01-19T02:37:49;1.60;99.90
39033;DHT22;24794;51.982;5.878;2023-01-19T02:38:53;1.50;99.90
39033;DHT22;24794;51.982;5.878;2023-01-19T02:39:58;1.50;99.90
39033;DHT22;24794;51.982;5.878;2023-01-19T02:41:03;1.40;99.90
39033;DHT22;24794;51.982;5.878;2023-01-19T02:42:09;1.40;99.90
39033;DHT22;24794;51.982;5.878;2023-01-19T02:43:10;1.50;99.90
39033;DHT22;24794;51.982;5.878;2023-01-19T02:44:11;1.40;99.90
39033;DHT22;24794;51.982;5.878;2023-01-19T02:45:15;1.40;99.90
39033;DHT22;24794;51.982;5.878;2023-01-19T02:46:16;1.40;99.90
39033;DHT22;24794;51.982;5.878;2023-01-19T02:47:17;1.40;99.90
39033;DHT22;24794;51.982;5.878;2023-01-19T02:48:19;1.40;99.90
39033;DHT22;24794;51.982;5.878;2023-01-19T02:49:20;1.50;99.90
39033;DHT22;24794;51.982;5.878;2023-01-19T02:50:46;1.40;99.90
39033;DHT22;24794;51.982;5.878;2023-01-19T02:51:49;1.40;99.90
39033;DHT22;24794;51.982;5.878;2023-01-19T02:52:52;1.40;99.90
39033;DHT22;24794;51.982;5.878;2023-01-19T02:55:12;1.40;99.90
39033;DHT22;24794;51.982;5.878;2023-01-19T02:57:44;1.40;99.90
39033;DHT22;24794;51.982;5.878;2023-01-19T02:59:00;1.50;99.90
39033;DHT22;24794;51.982;5.878;2023-01-19T03:01:30;1.40;99.90
39033;DHT22;24794;51.982;5.878;2023-01-19T03:03:18;1.50;99.90
39033;DHT22;24794;51.982;5.878;2023-01-19T03:06:52;1.50;99.90
39033;DHT22;24794;51.982;5.878;2023-01-19T03:11:26;1.50;99.90
39033;DHT22;24794;51.982;5.878;2023-01-19T03:12:08;1.50;99.90
39033;DHT22;24794;51.982;5.878;2023-01-19T03:14:32;1.50;99.90
39033;DHT22;24794;51.982;5.878;2023-01-19T03:16:50;1.50;99.90
39033;DHT22;24794;51.982;5.878;2023-01-19T03:17:55;1.50;99.90
39033;DHT22;24794;51.982;5.878;2023-01-19T03:19:14;1.50;99.90
39033;DHT22;24794;51.982;5.878;2023-01-19T03:20:22;1.40;99.90
39033;DHT22;24794;51.982;5.878;2023-01-19T03:21:26;1.50;99.90
39033;DHT22;24794;51.982;5.878;2023-01-19T03:22:28;1.40;99.90
39033;DHT22;24794;51.982;5.878;2023-01-19T03:23:31;1.40;99.90
39033;DHT22;24794;51.982;5.878;2023-01-19T03:24:39;1.40;99.90
39033;DHT22;24794;51.982;5.878;2023-01-19T03:25:45;1.40;99.90
39033;DHT22;24794;51.982;5.878;2023-01-19T03:26:50;1.40;99.90
39033;DHT22;24794;51.982;5.878;2023-01-19T03:27:56;1.40;99.90
39033;DHT22;24794;51.982;5.878;2023-01-19T03:28:59;1.40;99.90
39033;DHT22;24794;51.982;5.878;2023-01-19T03:30:08;1.40;99.90
39033;DHT22;24794;51.982;5.878;2023-01-19T03:31:15;1.40;99.90
39033;DHT22;24794;51.982;5.878;2023-01-19T03:32:18;1.40;99.90
39033;DHT22;24794;51.982;5.878;2023-01-19T03:33:28;1.40;99.90
39033;DHT22;24794;51.982;5.878;2023-01-19T03:34:31;1.40;99.90
39033;DHT22;24794;51.982;5.878;2023-01-19T03:35:36;1.40;99.90
39033;DHT22;24794;51.982;5.878;2023-01-19T03:36:45;1.50;99.90
39033;DHT22;24794;51.982;5.878;2023-01-19T03:37:47;1.50;99.90
39033;DHT22;24794;51.982;5.878;2023-01-19T03:38:51;1.50;99.90
39033;DHT22;24794;51.982;5.878;2023-01-19T03:39:52;1.50;99.90
39033;DHT22;24794;51.982;5.878;2023-01-19T03:40:57;1.50;99.90
39033;DHT22;24794;51.982;5.878;2023-01-19T03:42:01;1.50;99.90
39033;DHT22;24794;51.982;5.878;2023-01-19T03:43:04;1.50;99.90
39033;DHT22;24794;51.982;5.878;2023-01-19T03:44:05;1.60;99.90
39033;DHT22;24794;51.982;5.878;2023-01-19T03:45:08;1.60;99.90
39033;DHT22;24794;51.982;5.878;2023-01-19T03:46:09;1.60;99.90
39033;DHT22;24794;51.982;5.878;2023-01-19T03:47:12;1.60;99.90
39033;DHT22;24794;51.982;5.878;2023-01-19T03:48:13;1.60;99.90
39033;DHT22;24794;51.982;5.878;2023-01-19T03:49:14;1.60;99.90
39033;DHT22;24794;51.982;5.878;2023-01-19T03:50:23;1.70;99.90
39033;DHT22;24794;51.982;5.878;2023-01-19T03:51:25;1.70;99.90
39033;DHT22;24794;51.982;5.878;2023-01-19T03:52:27;1.70;99.90
39033;DHT22;24794;51.982;5.878;2023-01-19T03:53:28;1.70;99.90
39033;DHT22;24794;51.982;5.878;2023-01-19T03:54:29;1.70;99.90
39033;DHT22;24794;51.982;5.878;2023-01-19T03:55:30;1.80;99.90
39033;DHT22;24794;51.982;5.878;2023-01-19T03:56:31;1.70;99.90
39033;DHT22;24794;51.982;5.878;2023-01-19T03:57:31;1.70;99.90
39033;DHT22;24794;51.982;5.878;2023-01-19T03:58:32;1.80;99.90
39033;DHT22;24794;51.982;5.878;2023-01-19T03:59:33;1.80;99.90
39033;DHT22;24794;51.982;5.878;2023-01-19T04:00:34;1.80;99.90
39033;DHT22;24794;51.982;5.878;2023-01-19T04:01:35;1.80;99.90
39033;DHT22;24794;51.982;5.878;2023-01-19T04:02:36;1.80;99.90
39033;DHT22;24794;51.982;5.878;2023-01-19T04:03:37;1.80;99.90
39033;DHT22;24794;51.982;5.878;2023-01-19T04:04:37;1.80;99.90
39033;DHT22;24794;51.982;5.878;2023-01-19T04:05:38;1.90;99.90
39033;DHT22;24794;51.982;5.878;2023-01-19T04:06:39;1.90;99.90
39033;DHT22;24794;51.982;5.878;2023-01-19T04:07:39;1.90;99.90
39033;DHT22;24794;51.982;5.878;2023-01-19T04:08:40;1.90;99.90
39033;DHT22;24794;51.982;5.878;2023-01-19T04:09:40;1.90;99.90
39033;DHT22;24794;51.982;5.878;2023-01-19T04:10:41;2.00;99.90
39033;DHT22;24794;51.982;5.878;2023-01-19T04:11:41;2.00;99.90
39033;DHT22;24794;51.982;5.878;2023-01-19T04:12:42;2.00;99.90
39033;DHT22;24794;51.982;5.878;2023-01-19T04:13:43;2.00;99.90
39033;DHT22;24794;51.982;5.878;2023-01-19T04:14:44;2.00;99.90
39033;DHT22;24794;51.982;5.878;2023-01-19T04:15:44;2.00;99.90
39033;DHT22;24794;51.982;5.878;2023-01-19T04:16:45;2.10;99.90
39033;DHT22;24794;51.982;5.878;2023-01-19T04:17:45;2.10;99.90
39033;DHT22;24794;51.982;5.878;2023-01-19T04:18:46;2.10;99.90
39033;DHT22;24794;51.982;5.878;2023-01-19T04:19:47;2.10;99.90
39033;DHT22;24794;51.982;5.878;2023-01-19T04:20:48;2.10;99.90
39033;DHT22;24794;51.982;5.878;2023-01-19T04:21:49;2.10;99.90
39033;DHT22;24794;51.982;5.878;2023-01-19T04:22:50;2.10;99.90
39033;DHT22;24794;51.982;5.878;2023-01-19T04:23:50;2.10;99.90
39033;DHT22;24794;51.982;5.878;2023-01-19T04:24:52;2.10;99.90
39033;DHT22;24794;51.982;5.878;2023-01-19T04:26:13;2.10;99.90
39033;DHT22;24794;51.982;5.878;2023-01-19T04:27:14;2.10;99.90
39033;DHT22;24794;51.982;5.878;2023-01-19T04:28:15;2.10;99.90
39033;DHT22;24794;51.982;5.878;2023-01-19T04:29:16;2.10;99.90
39033;DHT22;24794;51.982;5.878;2023-01-19T04:30:16;2.10;99.90
39033;DHT22;24794;51.982;5.878;2023-01-19T04:31:17;2.10;99.90
39033;DHT22;24794;51.982;5.878;2023-01-19T04:32:18;2.10;99.90
39033;DHT22;24794;51.982;5.878;2023-01-19T04:33:20;2.10;99.90
39033;DHT22;24794;51.982;5.878;2023-01-19T04:34:21;2.10;99.90
39033;DHT22;24794;51.982;5.878;2023-01-19T04:35:22;2.10;99.90
39033;DHT22;24794;51.982;5.878;2023-01-19T04:36:23;2.10;99.90
39033;DHT22;24794;51.982;5.878;2023-01-19T04:37:23;2.10;99.90
39033;DHT22;24794;51.982;5.878;2023-01-19T04:38:24;2.10;99.90
39033;DHT22;24794;51.982;5.878;2023-01-19T04:39:25;2.00;99.90
39033;DHT22;24794;51.982;5.878;2023-01-19T04:40:26;2.10;99.90
39033;DHT22;24794;51.982;5.878;2023-01-19T04:41:27;2.10;99.90
39033;DHT22;24794;51.982;5.878;2023-01-19T04:42:28;2.10;99.90
39033;DHT22;24794;51.982;5.878;2023-01-19T04:43:29;2.10;99.90
39033;DHT22;24794;51.982;5.878;2023-01-19T04:44:29;2.10;99.90
39033;DHT22;24794;51.982;5.878;2023-01-19T04:45:30;2.10;99.90
39033;DHT22;24794;51.982;5.878;2023-01-19T04:46:30;2.10;99.90
39033;DHT22;24794;51.982;5.878;2023-01-19T04:47:31;2.10;99.90
39033;DHT22;24794;51.982;5.878;2023-01-19T04:48:32;2.10;99.90
39033;DHT22;24794;51.982;5.878;2023-01-19T04:49:33;2.10;99.90
39033;DHT22;24794;51.982;5.878;2023-01-19T04:50:37;2.10;99.90
39033;DHT22;24794;51.982;5.878;2023-01-19T04:51:37;2.10;99.90
39033;DHT22;24794;51.982;5.878;2023-01-19T04:52:38;2.20;99.90
39033;DHT22;24794;51.982;5.878;2023-01-19T04:53:39;2.10;99.90
39033;DHT22;24794;51.982;5.878;2023-01-19T04:54:39;2.20;99.90
39033;DHT22;24794;51.982;5.878;2023-01-19T04:55:40;2.10;99.90
39033;DHT22;24794;51.982;5.878;2023-01-19T04:56:40;2.20;99.90
39033;DHT22;24794;51.982;5.878;2023-01-19T04:57:41;2.20;99.90
39033;DHT22;24794;51.982;5.878;2023-01-19T04:58:42;2.20;99.90
39033;DHT22;24794;51.982;5.878;2023-01-19T04:59:43;2.20;99.90
39033;DHT22;24794;51.982;5.878;2023-01-19T05:00:43;2.20;99.90
39033;DHT22;24794;51.982;5.878;2023-01-19T05:01:44;2.20;99.90
39033;DHT22;24794;51.982;5.878;2023-01-19T05:02:45;2.20;99.90
39033;DHT22;24794;51.982;5.878;2023-01-19T05:03:45;2.20;99.90
39033;DHT22;24794;51.982;5.878;2023-01-19T05:04:46;2.30;99.90
39033;DHT22;24794;51.982;5.878;2023-01-19T05:05:47;2.30;99.90
39033;DHT22;24794;51.982;5.878;2023-01-19T05:06:47;2.30;99.90
39033;DHT22;24794;51.982;5.878;2023-01-19T05:07:48;2.30;99.90
39033;DHT22;24794;51.982;5.878;2023-01-19T05:08:49;2.30;99.90
39033;DHT22;24794;51.982;5.878;2023-01-19T05:09:50;2.30;99.90
39033;DHT22;24794;51.982;5.878;2023-01-19T05:10:50;2.30;99.90
39033;DHT22;24794;51.982;5.878;2023-01-19T05:11:51;2.30;99.90
39033;DHT22;24794;51.982;5.878;2023-01-19T05:12:52;2.30;99.90
39033;DHT22;24794;51.982;5.878;2023-01-19T05:13:52;2.30;99.90
39033;DHT22;24794;51.982;5.878;2023-01-19T05:14:53;2.30;99.90
39033;DHT22;24794;51.982;5.878;2023-01-19T05:15:53;2.30;99.90
39033;DHT22;24794;51.982;5.878;2023-01-19T05:16:54;2.30;99.90
39033;DHT22;24794;51.982;5.878;2023-01-19T05:17:56;2.40;99.90
39033;DHT22;24794;51.982;5.878;2023-01-19T05:18:57;2.40;99.90
39033;DHT22;24794;51.982;5.878;2023-01-19T05:19:57;2.40;99.90
39033;DHT22;24794;51.982;5.878;2023-01-19T05:20:58;2.40;99.90
39033;DHT22;24794;51.982;5.878;2023-01-19T05:21:59;2.40;99.90
39033;DHT22;24794;51.982;5.878;2023-01-19T05:23:01;2.40;99.90
39033;DHT22;24794;51.982;5.878;2023-01-19T05:24:01;2.40;99.90
39033;DHT22;24794;51.982;5.878;2023-01-19T05:25:02;2.40;99.90
39033;DHT22;24794;51.982;5.878;2023-01-19T05:26:03;2.40;99.90
39033;DHT22;24794;51.982;5.878;2023-01-19T05:27:04;2.40;99.90
39033;DHT22;24794;51.982;5.878;2023-01-19T05:28:04;2.40;99.90
39033;DHT22;24794;51.982;5.878;2023-01-19T05:29:05;2.40;99.90
39033;DHT22;24794;51.982;5.878;2023-01-19T05:30:06;2.40;99.90
39033;DHT22;24794;51.982;5.878;2023-01-19T05:31:07;2.40;99.90
39033;DHT22;24794;51.982;5.878;2023-01-19T05:32:08;2.40;99.90
39033;DHT22;24794;51.982;5.878;2023-01-19T05:33:09;2.40;99.90
39033;DHT22;24794;51.982;5.878;2023-01-19T05:34:10;2.40;99.90
39033;DHT22;24794;51.982;5.878;2023-01-19T05:35:11;2.40;99.90
39033;DHT22;24794;51.982;5.878;2023-01-19T05:36:12;2.40;99.90
39033;DHT22;24794;51.982;5.878;2023-01-19T05:37:13;2.40;99.90
39033;DHT22;24794;51.982;5.878;2023-01-19T05:38:14;2.40;99.90
39033;DHT22;24794;51.982;5.878;2023-01-19T05:39:14;2.50;99.90
39033;DHT22;24794;51.982;5.878;2023-01-19T05:40:15;2.40;99.90
39033;DHT22;24794;51.982;5.878;2023-01-19T05:41:16;2.50;99.90
39033;DHT22;24794;51.982;5.878;2023-01-19T05:42:17;2.50;99.90
39033;DHT22;24794;51.982;5.878;2023-01-19T05:43:17;2.50;99.90
39033;DHT22;24794;51.982;5.878;2023-01-19T05:44:20;2.50;99.90
39033;DHT22;24794;51.982;5.878;2023-01-19T05:45:21;2.50;99.90
39033;DHT22;24794;51.982;5.878;2023-01-19T05:46:22;2.50;99.90
39033;DHT22;24794;51.982;5.878;2023-01-19T05:47:23;2.50;99.90
39033;DHT22;24794;51.982;5.878;2023-01-19T05:48:24;2.50;99.90
39033;DHT22;24794;51.982;5.878;2023-01-19T05:49:24;2.50;99.90
39033;DHT22;24794;51.982;5.878;2023-01-19T05:50:25;2.50;99.90
39033;DHT22;24794;51.982;5.878;2023-01-19T05:51:26;2.60;99.90
39033;DHT22;24794;51.982;5.878;2023-01-19T05:52:31;2.60;99.90
39033;DHT22;24794;51.982;5.878;2023-01-19T05:53:31;2.60;99.90
39033;DHT22;24794;51.982;5.878;2023-01-19T05:54:32;2.60;99.90
39033;DHT22;24794;51.982;5.878;2023-01-19T05:55:32;2.60;99.90
39033;DHT22;24794;51.982;5.878;2023-01-19T05:56:33;2.60;99.90
39033;DHT22;24794;51.982;5.878;2023-01-19T05:57:34;2.60;99.90
39033;DHT22;24794;51.982;5.878;2023-01-19T05:58:36;2.60;99.90
39033;DHT22;24794;51.982;5.878;2023-01-19T05:59:38;2.60;99.90
39033;DHT22;24794;51.982;5.878;2023-01-19T06:00:39;2.60;99.90
39033;DHT22;24794;51.982;5.878;2023-01-19T06:01:39;2.60;99.90
39033;DHT22;24794;51.982;5.878;2023-01-19T06:02:41;2.60;99.90
39033;DHT22;24794;51.982;5.878;2023-01-19T06:03:41;2.70;99.90
39033;DHT22;24794;51.982;5.878;2023-01-19T06:04:42;2.70;99.90
39033;DHT22;24794;51.982;5.878;2023-01-19T06:05:42;2.70;99.90
39033;DHT22;24794;51.982;5.878;2023-01-19T06:06:43;2.60;99.90
39033;DHT22;24794;51.982;5.878;2023-01-19T06:07:44;2.60;99.90
39033;DHT22;24794;51.982;5.878;2023-01-19T06:08:45;2.60;99.90
39033;DHT22;24794;51.982;5.878;2023-01-19T06:09:45;2.60;99.90
39033;DHT22;24794;51.982;5.878;2023-01-19T06:10:46;2.60;99.90
39033;DHT22;24794;51.982;5.878;2023-01-19T06:11:46;2.60;99.90
39033;DHT22;24794;51.982;5.878;2023-01-19T06:12:47;2.60;99.90
39033;DHT22;24794;51.982;5.878;2023-01-19T06:13:48;2.60;99.90
39033;DHT22;24794;51.982;5.878;2023-01-19T06:14:50;2.60;99.90
39033;DHT22;24794;51.982;5.878;2023-01-19T06:15:58;2.60;99.90
39033;DHT22;24794;51.982;5.878;2023-01-19T06:16:59;2.60;99.90
39033;DHT22;24794;51.982;5.878;2023-01-19T06:18:00;2.70;99.90
39033;DHT22;24794;51.982;5.878;2023-01-19T06:19:00;2.70;99.90
39033;DHT22;24794;51.982;5.878;2023-01-19T06:20:01;2.70;99.90
39033;DHT22;24794;51.982;5.878;2023-01-19T06:21:06;2.70;99.90
39033;DHT22;24794;51.982;5.878;2023-01-19T06:22:07;2.70;99.90
39033;DHT22;24794;51.982;5.878;2023-01-19T06:23:08;2.70;99.90
39033;DHT22;24794;51.982;5.878;2023-01-19T06:24:09;2.70;99.90
39033;DHT22;24794;51.982;5.878;2023-01-19T06:25:10;2.70;99.90
39033;DHT22;24794;51.982;5.878;2023-01-19T06:26:11;2.70;99.90
39033;DHT22;24794;51.982;5.878;2023-01-19T06:27:12;2.80;99.90
39033;DHT22;24794;51.982;5.878;2023-01-19T06:28:13;2.80;99.90
39033;DHT22;24794;51.982;5.878;2023-01-19T06:29:14;2.80;99.90
39033;DHT22;24794;51.982;5.878;2023-01-19T06:30:15;2.80;99.90
39033;DHT22;24794;51.982;5.878;2023-01-19T06:31:16;2.80;99.90
39033;DHT22;24794;51.982;5.878;2023-01-19T06:32:17;2.80;99.90
39033;DHT22;24794;51.982;5.878;2023-01-19T06:33:18;2.80;99.90
39033;DHT22;24794;51.982;5.878;2023-01-19T06:34:19;2.90;99.90
39033;DHT22;24794;51.982;5.878;2023-01-19T06:35:19;2.90;99.90
39033;DHT22;24794;51.982;5.878;2023-01-19T06:36:20;2.90;99.90
39033;DHT22;24794;51.982;5.878;2023-01-19T06:37:21;2.90;99.90
39033;DHT22;24794;51.982;5.878;2023-01-19T06:38:22;2.90;99.90
39033;DHT22;24794;51.982;5.878;2023-01-19T06:39:23;2.90;99.90
39033;DHT22;24794;51.982;5.878;2023-01-19T06:40:23;3.00;99.90
39033;DHT22;24794;51.982;5.878;2023-01-19T06:41:24;3.00;99.90
39033;DHT22;24794;51.982;5.878;2023-01-19T06:42:24;3.00;99.90
39033;DHT22;24794;51.982;5.878;2023-01-19T06:43:25;3.00;99.90
39033;DHT22;24794;51.982;5.878;2023-01-19T06:44:26;3.00;99.90
39033;DHT22;24794;51.982;5.878;2023-01-19T06:45:26;3.00;99.90
39033;DHT22;24794;51.982;5.878;2023-01-19T06:46:27;3.00;99.90
39033;DHT22;24794;51.982;5.878;2023-01-19T06:47:28;3.00;99.90
39033;DHT22;24794;51.982;5.878;2023-01-19T06:48:29;3.10;99.90
39033;DHT22;24794;51.982;5.878;2023-01-19T06:49:29;3.10;99.90
39033;DHT22;24794;51.982;5.878;2023-01-19T06:50:30;3.10;99.90
39033;DHT22;24794;51.982;5.878;2023-01-19T06:51:30;3.10;99.90
39033;DHT22;24794;51.982;5.878;2023-01-19T06:52:31;3.10;99.90
39033;DHT22;24794;51.982;5.878;2023-01-19T06:53:32;3.10;99.90
39033;DHT22;24794;51.982;5.878;2023-01-19T06:54:32;3.10;99.90
39033;DHT22;24794;51.982;5.878;2023-01-19T06:55:33;3.10;99.90
39033;DHT22;24794;51.982;5.878;2023-01-19T06:56:35;3.10;99.90